sensor_id;sensor_type;location;lat;lon;timestamp;temperature;humidity
13310;DHT22;6723;48.256;16.402;2023-03-01T00:01:59;0.70;97.40
13310;DHT22;6723;48.256;16.402;2023-03-01T00:04:25;0.60;97.40
13310;DHT22;6723;48.256;16.402;2023-03-01T00:06:51;0.60;97.40
13310;DHT22;6723;48.256;16.402;2023-03-01T00:09:17;0.50;97.40
13310;DHT22;6723;48.256;16.402;2023-03-01T00:11:43;0.50;97.40
13310;DHT22;6723;48.256;16.402;2023-03-01T00:14:09;0.50;97.50
13310;DHT22;6723;48.256;16.402;2023-03-01T00:16:38;0.50;97.60
13310;DHT22;6723;48.256;16.402;2023-03-01T00:19:06;0.40;97.50
13310;DHT22;6723;48.256;16.402;2023-03-01T00:21:32;0.40;97.60
13310;DHT22;6723;48.256;16.402;2023-03-01T00:23:59;0.30;97.60
13310;DHT22;6723;48.256;16.402;2023-03-01T00:26:26;0.30;97.80
13310;DHT22;6723;48.256;16.402;2023-03-01T00:28:52;0.30;97.80
13310;DHT22;6723;48.256;16.402;2023-03-01T00:31:21;0.30;97.90
13310;DHT22;6723;48.256;16.402;2023-03-01T00:33:47;0.30;98.00
13310;DHT22;6723;48.256;16.402;2023-03-01T00:36:14;0.30;98.10
13310;DHT22;6723;48.256;16.402;2023-03-01T00:38:43;0.20;98.10
13310;DHT22;6723;48.256;16.402;2023-03-01T00:41:12;0.30;98.20
13310;DHT22;6723;48.256;16.402;2023-03-01T00:43:39;0.20;98.20
13310;DHT22;6723;48.256;16.402;2023-03-01T00:46:10;0.20;98.20
13310;DHT22;6723;48.256;16.402;2023-03-01T00:48:36;0.10;98.10
13310;DHT22;6723;48.256;16.402;2023-03-01T00:51:10;0.10;98.20
13310;DHT22;6723;48.256;16.402;2023-03-01T00:53:36;0.00;98.30
13310;DHT22;6723;48.256;16.402;2023-03-01T00:56:04;0.00;98.30
13310;DHT22;6723;48.256;16.402;2023-03-01T00:58:32;-0.10;98.40
13310;DHT22;6723;48.256;16.402;2023-03-01T01:00:59;-0.10;98.50
13310;DHT22;6723;48.256;16.402;2023-03-01T01:03:25;-0.10;98.50
13310;DHT22;6723;48.256;16.402;2023-03-01T01:05:54;-0.10;98.70
13310;DHT22;6723;48.256;16.402;2023-03-01T01:08:21;-0.10;98.70
13310;DHT22;6723;48.256;16.402;2023-03-01T01:10:47;-0.10;98.90
13310;DHT22;6723;48.256;16.402;2023-03-01T01:13:14;-0.10;99.00
13310;DHT22;6723;48.256;16.402;2023-03-01T01:15:39;-0.20;99.00
13310;DHT22;6723;48.256;16.402;2023-03-01T01:18:06;-0.20;99.00
13310;DHT22;6723;48.256;16.402;2023-03-01T01:20:32;-0.20;99.10
13310;DHT22;6723;48.256;16.402;2023-03-01T01:22:58;-0.20;99.10
13310;DHT22;6723;48.256;16.402;2023-03-01T01:25:23;-0.20;99.20
13310;DHT22;6723;48.256;16.402;2023-03-01T01:27:52;-0.20;99.30
13310;DHT22;6723;48.256;16.402;2023-03-01T01:30:18;-0.20;99.40
13310;DHT22;6723;48.256;16.402;2023-03-01T01:32:43;-0.20;99.40
13310;DHT22;6723;48.256;16.402;2023-03-01T01:35:09;-0.20;99.40
13310;DHT22;6723;48.256;16.402;2023-03-01T01:37:35;-0.10;99.50
13310;DHT22;6723;48.256;16.402;2023-03-01T01:40:01;-0.10;99.50
13310;DHT22;6723;48.256;16.402;2023-03-01T01:42:30;0.00;99.60
13310;DHT22;6723;48.256;16.402;2023-03-01T01:45:25;0.00;99.60
13310;DHT22;6723;48.256;16.402;2023-03-01T01:47:55;0.10;99.60
13310;DHT22;6723;48.256;16.402;2023-03-01T01:50:22;0.10;99.60
13310;DHT22;6723;48.256;16.402;2023-03-01T01:52:50;0.30;99.90
13310;DHT22;6723;48.256;16.402;2023-03-01T01:55:20;0.30;99.60
13310;DHT22;6723;48.256;16.402;2023-03-01T01:57:56;0.40;99.60
13310;DHT22;6723;48.256;16.402;2023-03-01T02:00:26;0.40;99.40
13310;DHT22;6723;48.256;16.402;2023-03-01T02:03:14;0.50;99.40
13310;DHT22;6723;48.256;16.402;2023-03-01T02:05:58;0.50;99.40
13310;DHT22;6723;48.256;16.402;2023-03-01T02:08:29;0.60;99.40
13310;DHT22;6723;48.256;16.402;2023-03-01T02:10:57;0.70;99.30
13310;DHT22;6723;48.256;16.402;2023-03-01T02:13:26;0.80;99.20
13310;DHT22;6723;48.256;16.402;2023-03-01T02:15:52;0.90;99.00
13310;DHT22;6723;48.256;16.402;2023-03-01T02:18:20;0.90;98.90
13310;DHT22;6723;48.256;16.402;2023-03-01T02:23:39;0.90;98.60
13310;DHT22;6723;48.256;16.402;2023-03-01T02:26:09;1.00;98.60
13310;DHT22;6723;48.256;16.402;2023-03-01T02:28:40;1.00;98.50
13310;DHT22;6723;48.256;16.402;2023-03-01T02:31:09;1.00;98.50
13310;DHT22;6723;48.256;16.402;2023-03-01T02:33:55;1.00;98.30
13310;DHT22;6723;48.256;16.402;2023-03-01T02:36:25;1.10;98.30
13310;DHT22;6723;48.256;16.402;2023-03-01T02:38:55;1.20;98.30
13310;DHT22;6723;48.256;16.402;2023-03-01T02:41:22;1.10;98.10
13310;DHT22;6723;48.256;16.402;2023-03-01T02:43:49;1.20;98.10
13310;DHT22;6723;48.256;16.402;2023-03-01T02:46:17;1.20;97.90
13310;DHT22;6723;48.256;16.402;2023-03-01T02:48:56;1.20;97.80
13310;DHT22;6723;48.256;16.402;2023-03-01T02:57:05;1.30;97.50
13310;DHT22;6723;48.256;16.402;2023-03-01T02:59:34;1.30;97.40
13310;DHT22;6723;48.256;16.402;2023-03-01T03:02:18;1.30;97.40
13310;DHT22;6723;48.256;16.402;2023-03-01T03:04:46;1.30;97.30
13310;DHT22;6723;48.256;16.402;2023-03-01T03:07:12;1.30;97.30
13310;DHT22;6723;48.256;16.402;2023-03-01T03:09:38;1.30;97.30
13310;DHT22;6723;48.256;16.402;2023-03-01T03:12:04;1.30;97.30
13310;DHT22;6723;48.256;16.402;2023-03-01T03:14:30;1.40;97.40
13310;DHT22;6723;48.256;16.402;2023-03-01T03:16:55;1.40;97.40
13310;DHT22;6723;48.256;16.402;2023-03-01T03:19:21;1.40;97.40
13310;DHT22;6723;48.256;16.402;2023-03-01T03:21:47;1.40;97.30
13310;DHT22;6723;48.256;16.402;2023-03-01T03:24:13;1.40;97.30
13310;DHT22;6723;48.256;16.402;2023-03-01T03:26:38;1.40;97.30
13310;DHT22;6723;48.256;16.402;2023-03-01T03:29:04;1.30;97.30
13310;DHT22;6723;48.256;16.402;2023-03-01T03:31:30;1.30;97.30
13310;DHT22;6723;48.256;16.402;2023-03-01T03:33:56;1.40;97.20
13310;DHT22;6723;48.256;16.402;2023-03-01T03:36:24;1.40;97.20
13310;DHT22;6723;48.256;16.402;2023-03-01T03:38:50;1.30;97.10
13310;DHT22;6723;48.256;16.402;2023-03-01T03:41:17;1.30;97.20
13310;DHT22;6723;48.256;16.402;2023-03-01T03:43:43;1.30;97.30
13310;DHT22;6723;48.256;16.402;2023-03-01T03:46:10;1.40;97.40
13310;DHT22;6723;48.256;16.402;2023-03-01T03:48:39;1.30;97.30
13310;DHT22;6723;48.256;16.402;2023-03-01T03:51:09;1.40;97.30
13310;DHT22;6723;48.256;16.402;2023-03-01T03:53:35;1.40;97.20
13310;DHT22;6723;48.256;16.402;2023-03-01T03:56:01;1.40;97.30
13310;DHT22;6723;48.256;16.402;2023-03-01T03:58:27;1.40;97.40
13310;DHT22;6723;48.256;16.402;2023-03-01T04:00:55;1.40;97.40
13310;DHT22;6723;48.256;16.402;2023-03-01T04:03:22;1.40;97.70
13310;DHT22;6723;48.256;16.402;2023-03-01T04:05:49;1.40;97.40
13310;DHT22;6723;48.256;16.402;2023-03-01T04:08:20;1.50;97.40
13310;DHT22;6723;48.256;16.402;2023-03-01T04:10:48;1.40;97.40
13310;DHT22;6723;48.256;16.402;2023-03-01T04:13:22;1.40;97.60
13310;DHT22;6723;48.256;16.402;2023-03-01T04:15:49;1.40;97.90
13310;DHT22;6723;48.256;16.402;2023-03-01T04:18:17;1.40;98.10
13310;DHT22;6723;48.256;16.402;2023-03-01T04:20:45;1.40;98.20
13310;DHT22;6723;48.256;16.402;2023-03-01T04:23:16;1.40;98.40
13310;DHT22;6723;48.256;16.402;2023-03-01T04:25:56;1.30;98.60
13310;DHT22;6723;48.256;16.402;2023-03-01T04:30:53;1.40;99.00
13310;DHT22;6723;48.256;16.402;2023-03-01T04:33:20;1.40;99.10
13310;DHT22;6723;48.256;16.402;2023-03-01T04:35:46;1.40;99.20
13310;DHT22;6723;48.256;16.402;2023-03-01T04:38:19;1.40;99.40
13310;DHT22;6723;48.256;16.402;2023-03-01T04:40:45;1.40;99.30
13310;DHT22;6723;48.256;16.402;2023-03-01T04:43:12;1.40;99.40
13310;DHT22;6723;48.256;16.402;2023-03-01T04:45:42;1.40;99.50
13310;DHT22;6723;48.256;16.402;2023-03-01T04:48:08;1.40;99.50
13310;DHT22;6723;48.256;16.402;2023-03-01T04:50:35;1.40;99.50
13310;DHT22;6723;48.256;16.402;2023-03-01T04:53:00;1.40;99.50
13310;DHT22;6723;48.256;16.402;2023-03-01T04:55:28;1.40;99.50
13310;DHT22;6723;48.256;16.402;2023-03-01T04:57:55;1.40;99.40
13310;DHT22;6723;48.256;16.402;2023-03-01T05:00:22;1.40;99.50
13310;DHT22;6723;48.256;16.402;2023-03-01T05:02:56;1.40;99.50
13310;DHT22;6723;48.256;16.402;2023-03-01T05:07:56;1.50;99.40
13310;DHT22;6723;48.256;16.402;2023-03-01T05:10:22;1.40;99.30
13310;DHT22;6723;48.256;16.402;2023-03-01T05:12:49;1.50;99.30
13310;DHT22;6723;48.256;16.402;2023-03-01T05:15:15;1.50;99.30
13310;DHT22;6723;48.256;16.402;2023-03-01T05:17:41;1.50;99.20
13310;DHT22;6723;48.256;16.402;2023-03-01T05:20:08;1.60;99.20
13310;DHT22;6723;48.256;16.402;2023-03-01T05:22:34;1.60;99.30
13310;DHT22;6723;48.256;16.402;2023-03-01T05:25:01;1.60;99.10
13310;DHT22;6723;48.256;16.402;2023-03-01T05:27:27;1.60;98.90
13310;DHT22;6723;48.256;16.402;2023-03-01T05:29:53;1.60;98.90
13310;DHT22;6723;48.256;16.402;2023-03-01T05:32:18;1.60;98.70
13310;DHT22;6723;48.256;16.402;2023-03-01T05:34:44;1.60;98.80
13310;DHT22;6723;48.256;16.402;2023-03-01T05:37:12;1.60;98.90
13310;DHT22;6723;48.256;16.402;2023-03-01T05:39:39;1.60;98.70
13310;DHT22;6723;48.256;16.402;2023-03-01T05:42:10;1.60;98.60
13310;DHT22;6723;48.256;16.402;2023-03-01T05:44:36;1.60;98.70
13310;DHT22;6723;48.256;16.402;2023-03-01T05:47:02;1.60;98.70
13310;DHT22;6723;48.256;16.402;2023-03-01T05:49:28;1.70;98.60
13310;DHT22;6723;48.256;16.402;2023-03-01T05:51:53;1.60;98.50
13310;DHT22;6723;48.256;16.402;2023-03-01T05:54:21;1.70;98.40
13310;DHT22;6723;48.256;16.402;2023-03-01T05:56:48;1.70;98.20
13310;DHT22;6723;48.256;16.402;2023-03-01T05:59:13;1.80;98.10
13310;DHT22;6723;48.256;16.402;2023-03-01T06:01:42;1.80;98.10
13310;DHT22;6723;48.256;16.402;2023-03-01T06:04:08;1.80;98.10
13310;DHT22;6723;48.256;16.402;2023-03-01T06:06:35;1.80;98.00
13310;DHT22;6723;48.256;16.402;2023-03-01T06:09:06;1.90;98.00
13310;DHT22;6723;48.256;16.402;2023-03-01T06:11:35;1.80;97.90
13310;DHT22;6723;48.256;16.402;2023-03-01T06:14:01;1.90;97.90
13310;DHT22;6723;48.256;16.402;2023-03-01T06:16:27;2.00;97.80
13310;DHT22;6723;48.256;16.402;2023-03-01T06:18:53;1.90;97.60
13310;DHT22;6723;48.256;16.402;2023-03-01T06:21:19;1.90;97.60
13310;DHT22;6723;48.256;16.402;2023-03-01T06:23:45;2.00;97.60
13310;DHT22;6723;48.256;16.402;2023-03-01T06:26:10;2.10;97.60
13310;DHT22;6723;48.256;16.402;2023-03-01T06:28:36;2.10;97.70
13310;DHT22;6723;48.256;16.402;2023-03-01T06:31:02;2.20;97.60
13310;DHT22;6723;48.256;16.402;2023-03-01T06:33:28;2.10;97.40
13310;DHT22;6723;48.256;16.402;2023-03-01T06:35:55;2.20;97.70
13310;DHT22;6723;48.256;16.402;2023-03-01T06:38:22;2.20;97.50
13310;DHT22;6723;48.256;16.402;2023-03-01T06:40:56;2.30;97.30
13310;DHT22;6723;48.256;16.402;2023-03-01T06:43:23;2.30;97.00
13310;DHT22;6723;48.256;16.402;2023-03-01T06:45:49;2.30;96.90
13310;DHT22;6723;48.256;16.402;2023-03-01T06:48:15;2.30;96.80
13310;DHT22;6723;48.256;16.402;2023-03-01T06:50:40;2.30;96.80
13310;DHT22;6723;48.256;16.402;2023-03-01T06:53:06;2.40;96.90
13310;DHT22;6723;48.256;16.402;2023-03-01T06:55:32;2.40;96.80
13310;DHT22;6723;48.256;16.402;2023-03-01T06:58:00;2.40;96.70
13310;DHT22;6723;48.256;16.402;2023-03-01T07:00:26;2.50;96.70
13310;DHT22;6723;48.256;16.402;2023-03-01T07:02:53;2.40;96.60
13310;DHT22;6723;48.256;16.402;2023-03-01T07:05:19;2.50;96.70
13310;DHT22;6723;48.256;16.402;2023-03-01T07:07:46;2.50;96.70
13310;DHT22;6723;48.256;16.402;2023-03-01T07:10:12;2.50;96.70
13310;DHT22;6723;48.256;16.402;2023-03-01T07:12:37;2.60;96.70
13310;DHT22;6723;48.256;16.402;2023-03-01T07:15:04;2.60;96.60
13310;DHT22;6723;48.256;16.402;2023-03-01T07:17:30;2.60;96.50
13310;DHT22;6723;48.256;16.402;2023-03-01T07:19:56;2.60;96.50
13310;DHT22;6723;48.256;16.402;2023-03-01T07:22:22;2.70;96.50
13310;DHT22;6723;48.256;16.402;2023-03-01T07:24:48;2.70;96.40
13310;DHT22;6723;48.256;16.402;2023-03-01T07:27:14;2.80;96.40
13310;DHT22;6723;48.256;16.402;2023-03-01T07:29:39;2.80;96.40
13310;DHT22;6723;48.256;16.402;2023-03-01T07:32:06;2.80;96.30
13310;DHT22;6723;48.256;16.402;2023-03-01T07:34:32;2.90;97.10
13310;DHT22;6723;48.256;16.402;2023-03-01T07:36:58;2.90;97.10
13310;DHT22;6723;48.256;16.402;2023-03-01T07:39:24;2.90;96.60
13310;DHT22;6723;48.256;16.402;2023-03-01T07:41:50;2.90;96.30
13310;DHT22;6723;48.256;16.402;2023-03-01T07:44:16;3.10;96.30
13310;DHT22;6723;48.256;16.402;2023-03-01T07:46:43;3.20;96.10
13310;DHT22;6723;48.256;16.402;2023-03-01T07:49:10;3.20;95.90
13310;DHT22;6723;48.256;16.402;2023-03-01T07:51:35;3.30;95.80
13310;DHT22;6723;48.256;16.402;2023-03-01T07:54:01;3.50;95.80
13310;DHT22;6723;48.256;16.402;2023-03-01T07:56:27;3.50;95.50
13310;DHT22;6723;48.256;16.402;2023-03-01T07:58:53;3.60;96.00
13310;DHT22;6723;48.256;16.402;2023-03-01T08:01:20;3.90;97.70
13310;DHT22;6723;48.256;16.402;2023-03-01T08:03:47;4.00;96.30
13310;DHT22;6723;48.256;16.402;2023-03-01T08:06:15;3.90;95.40
13310;DHT22;6723;48.256;16.402;2023-03-01T08:08:41;3.90;95.20
13310;DHT22;6723;48.256;16.402;2023-03-01T08:11:10;4.00;95.20
13310;DHT22;6723;48.256;16.402;2023-03-01T08:13:36;4.20;95.10
13310;DHT22;6723;48.256;16.402;2023-03-01T08:16:10;4.30;94.90
13310;DHT22;6723;48.256;16.402;2023-03-01T08:18:36;4.60;95.10
13310;DHT22;6723;48.256;16.402;2023-03-01T08:21:07;4.70;94.40
13310;DHT22;6723;48.256;16.402;2023-03-01T08:23:33;4.90;93.90
13310;DHT22;6723;48.256;16.402;2023-03-01T08:26:17;5.10;93.70
13310;DHT22;6723;48.256;16.402;2023-03-01T08:28:45;5.10;93.10
13310;DHT22;6723;48.256;16.402;2023-03-01T08:31:29;5.10;93.20
13310;DHT22;6723;48.256;16.402;2023-03-01T08:33:58;5.00;93.10
13310;DHT22;6723;48.256;16.402;2023-03-01T08:36:27;4.90;93.10
13310;DHT22;6723;48.256;16.402;2023-03-01T08:38:53;5.50;93.80
13310;DHT22;6723;48.256;16.402;2023-03-01T08:41:20;5.90;92.70
13310;DHT22;6723;48.256;16.402;2023-03-01T08:43:51;5.50;92.60
13310;DHT22;6723;48.256;16.402;2023-03-01T08:46:18;5.70;92.50
13310;DHT22;6723;48.256;16.402;2023-03-01T08:48:44;5.90;92.00
13310;DHT22;6723;48.256;16.402;2023-03-01T08:51:15;5.90;91.50
13310;DHT22;6723;48.256;16.402;2023-03-01T08:53:41;6.00;91.50
13310;DHT22;6723;48.256;16.402;2023-03-01T08:56:09;6.50;92.10
13310;DHT22;6723;48.256;16.402;2023-03-01T08:58:35;7.00;91.70
13310;DHT22;6723;48.256;16.402;2023-03-01T09:01:07;7.10;91.40
13310;DHT22;6723;48.256;16.402;2023-03-01T09:03:34;7.30;90.90
13310;DHT22;6723;48.256;16.402;2023-03-01T09:06:01;7.30;90.50
13310;DHT22;6723;48.256;16.402;2023-03-01T09:08:27;7.40;90.50
13310;DHT22;6723;48.256;16.402;2023-03-01T09:10:53;7.70;90.10
13310;DHT22;6723;48.256;16.402;2023-03-01T09:13:19;7.60;90.10
13310;DHT22;6723;48.256;16.402;2023-03-01T09:15:45;7.60;90.00
13310;DHT22;6723;48.256;16.402;2023-03-01T09:18:11;7.90;90.00
13310;DHT22;6723;48.256;16.402;2023-03-01T09:20:36;8.10;89.10
13310;DHT22;6723;48.256;16.402;2023-03-01T09:23:02;8.60;89.20
13310;DHT22;6723;48.256;16.402;2023-03-01T09:25:28;9.30;87.30
13310;DHT22;6723;48.256;16.402;2023-03-01T09:27:54;9.80;84.80
13310;DHT22;6723;48.256;16.402;2023-03-01T09:30:22;10.10;82.60
13310;DHT22;6723;48.256;16.402;2023-03-01T09:32:48;9.70;82.70
13310;DHT22;6723;48.256;16.402;2023-03-01T09:35:13;9.40;83.60
13310;DHT22;6723;48.256;16.402;2023-03-01T09:37:39;9.40;83.20
13310;DHT22;6723;48.256;16.402;2023-03-01T09:40:21;8.80;83.90
13310;DHT22;6723;48.256;16.402;2023-03-01T09:43:08;8.80;85.20
13310;DHT22;6723;48.256;16.402;2023-03-01T09:45:41;8.50;84.50
13310;DHT22;6723;48.256;16.402;2023-03-01T09:48:16;8.60;84.80
13310;DHT22;6723;48.256;16.402;2023-03-01T09:50:44;8.60;84.60
13310;DHT22;6723;48.256;16.402;2023-03-01T09:53:24;8.20;85.00
13310;DHT22;6723;48.256;16.402;2023-03-01T09:56:19;8.10;84.50
13310;DHT22;6723;48.256;16.402;2023-03-01T10:09:29;7.90;85.60
13310;DHT22;6723;48.256;16.402;2023-03-01T10:11:58;8.10;85.70
13310;DHT22;6723;48.256;16.402;2023-03-01T10:14:43;7.90;84.50
13310;DHT22;6723;48.256;16.402;2023-03-01T10:17:19;8.50;86.20
13310;DHT22;6723;48.256;16.402;2023-03-01T10:19:46;8.90;84.50
13310;DHT22;6723;48.256;16.402;2023-03-01T10:22:28;9.20;83.40
13310;DHT22;6723;48.256;16.402;2023-03-01T10:24:57;9.70;82.40
13310;DHT22;6723;48.256;16.402;2023-03-01T10:27:37;9.90;82.00
13310;DHT22;6723;48.256;16.402;2023-03-01T10:30:18;10.10;82.00
13310;DHT22;6723;48.256;16.402;2023-03-01T10:32:46;10.80;81.50
13310;DHT22;6723;48.256;16.402;2023-03-01T10:38:10;10.90;78.10
13310;DHT22;6723;48.256;16.402;2023-03-01T10:40:59;11.60;77.50
13310;DHT22;6723;48.256;16.402;2023-03-01T10:43:57;12.20;77.50
13310;DHT22;6723;48.256;16.402;2023-03-01T10:46:31;11.40;77.30
13310;DHT22;6723;48.256;16.402;2023-03-01T10:49:20;12.20;76.90
13310;DHT22;6723;48.256;16.402;2023-03-01T10:51:49;13.50;74.30
13310;DHT22;6723;48.256;16.402;2023-03-01T10:54:35;13.20;73.70
13310;DHT22;6723;48.256;16.402;2023-03-01T10:57:04;13.80;73.50
13310;DHT22;6723;48.256;16.402;2023-03-01T10:59:35;14.50;72.40
13310;DHT22;6723;48.256;16.402;2023-03-01T11:02:18;14.20;72.00
13310;DHT22;6723;48.256;16.402;2023-03-01T11:05:01;15.20;72.00
13310;DHT22;6723;48.256;16.402;2023-03-01T11:07:28;15.40;70.20
13310;DHT22;6723;48.256;16.402;2023-03-01T11:09:54;15.40;69.60
13310;DHT22;6723;48.256;16.402;2023-03-01T11:12:21;15.60;69.50
13310;DHT22;6723;48.256;16.402;2023-03-01T11:14:56;16.00;69.10
13310;DHT22;6723;48.256;16.402;2023-03-01T11:17:32;16.10;68.10
13310;DHT22;6723;48.256;16.402;2023-03-01T11:25:15;18.00;67.00
13310;DHT22;6723;48.256;16.402;2023-03-01T11:27:45;17.60;67.00
13310;DHT22;6723;48.256;16.402;2023-03-01T11:30:34;17.60;66.70
13310;DHT22;6723;48.256;16.402;2023-03-01T11:38:39;18.90;63.40
13310;DHT22;6723;48.256;16.402;2023-03-01T11:41:20;19.50;60.60
13310;DHT22;6723;48.256;16.402;2023-03-01T11:44:00;19.80;59.50
13310;DHT22;6723;48.256;16.402;2023-03-01T11:49:45;19.00;57.90
13310;DHT22;6723;48.256;16.402;2023-03-01T12:00:44;15.40;61.70
13310;DHT22;6723;48.256;16.402;2023-03-01T12:03:30;15.80;62.10
13310;DHT22;6723;48.256;16.402;2023-03-01T12:12:43;14.30;64.70
13310;DHT22;6723;48.256;16.402;2023-03-01T12:46:18;11.70;72.20
13310;DHT22;6723;48.256;16.402;2023-03-01T12:48:49;11.70;72.80
13310;DHT22;6723;48.256;16.402;2023-03-01T12:51:23;11.70;72.10
13310;DHT22;6723;48.256;16.402;2023-03-01T12:53:53;11.70;72.70
13310;DHT22;6723;48.256;16.402;2023-03-01T12:56:23;11.70;72.80
13310;DHT22;6723;48.256;16.402;2023-03-01T13:01:39;11.40;74.10
13310;DHT22;6723;48.256;16.402;2023-03-01T13:04:08;11.60;73.50
13310;DHT22;6723;48.256;16.402;2023-03-01T13:12:03;12.60;73.10
13310;DHT22;6723;48.256;16.402;2023-03-01T13:16:58;13.20;72.30
13310;DHT22;6723;48.256;16.402;2023-03-01T13:19:28;13.30;71.40
13310;DHT22;6723;48.256;16.402;2023-03-01T13:21:58;13.30;71.10
13310;DHT22;6723;48.256;16.402;2023-03-01T13:24:39;13.00;71.60
13310;DHT22;6723;48.256;16.402;2023-03-01T13:29:48;12.90;72.10
13310;DHT22;6723;48.256;16.402;2023-03-01T13:32:28;12.50;72.90
13310;DHT22;6723;48.256;16.402;2023-03-01T13:34:57;12.20;73.40
13310;DHT22;6723;48.256;16.402;2023-03-01T13:37:31;12.20;73.80
13310;DHT22;6723;48.256;16.402;2023-03-01T13:40:00;12.10;74.40
13310;DHT22;6723;48.256;16.402;2023-03-01T13:42:42;11.80;75.10
13310;DHT22;6723;48.256;16.402;2023-03-01T13:45:53;12.20;75.00
13310;DHT22;6723;48.256;16.402;2023-03-01T13:48:32;12.20;75.10
13310;DHT22;6723;48.256;16.402;2023-03-01T13:51:09;11.80;75.60
13310;DHT22;6723;48.256;16.402;2023-03-01T13:53:41;11.80;76.20
13310;DHT22;6723;48.256;16.402;2023-03-01T13:56:12;11.80;76.80
13310;DHT22;6723;48.256;16.402;2023-03-01T13:58:52;11.60;76.90
13310;DHT22;6723;48.256;16.402;2023-03-01T14:01:27;11.70;81.00
13310;DHT22;6723;48.256;16.402;2023-03-01T14:03:54;11.60;77.40
13310;DHT22;6723;48.256;16.402;2023-03-01T14:06:26;11.70;76.70
13310;DHT22;6723;48.256;16.402;2023-03-01T14:09:18;11.60;76.80
13310;DHT22;6723;48.256;16.402;2023-03-01T14:12:18;11.60;77.50
13310;DHT22;6723;48.256;16.402;2023-03-01T14:20:33;11.50;77.90
13310;DHT22;6723;48.256;16.402;2023-03-01T14:23:13;11.50;78.00
13310;DHT22;6723;48.256;16.402;2023-03-01T14:25:51;11.30;78.90
13310;DHT22;6723;48.256;16.402;2023-03-01T14:28:24;11.10;78.80
13310;DHT22;6723;48.256;16.402;2023-03-01T14:30:54;11.10;78.70
13310;DHT22;6723;48.256;16.402;2023-03-01T14:36:13;11.00;78.80
13310;DHT22;6723;48.256;16.402;2023-03-01T14:38:40;10.90;78.90
13310;DHT22;6723;48.256;16.402;2023-03-01T14:43:32;11.00;79.10
13310;DHT22;6723;48.256;16.402;2023-03-01T14:45:59;11.00;79.20
13310;DHT22;6723;48.256;16.402;2023-03-01T14:48:27;10.70;79.90
13310;DHT22;6723;48.256;16.402;2023-03-01T14:50:53;10.60;80.30
13310;DHT22;6723;48.256;16.402;2023-03-01T14:53:27;10.30;80.60
13310;DHT22;6723;48.256;16.402;2023-03-01T14:55:56;10.30;80.80
13310;DHT22;6723;48.256;16.402;2023-03-01T14:58:26;10.20;80.80
13310;DHT22;6723;48.256;16.402;2023-03-01T15:00:58;10.40;80.80
13310;DHT22;6723;48.256;16.402;2023-03-01T15:03:30;10.30;80.70
13310;DHT22;6723;48.256;16.402;2023-03-01T15:05:57;10.20;80.40
13310;DHT22;6723;48.256;16.402;2023-03-01T15:08:25;10.10;80.50
13310;DHT22;6723;48.256;16.402;2023-03-01T15:13:46;10.00;80.40
13310;DHT22;6723;48.256;16.402;2023-03-01T15:16:13;10.00;80.50
13310;DHT22;6723;48.256;16.402;2023-03-01T15:18:49;10.00;80.80
13310;DHT22;6723;48.256;16.402;2023-03-01T15:21:23;9.70;82.10
13310;DHT22;6723;48.256;16.402;2023-03-01T15:24:33;9.60;82.50
13310;DHT22;6723;48.256;16.402;2023-03-01T15:29:27;9.50;83.00
13310;DHT22;6723;48.256;16.402;2023-03-01T15:32:05;9.40;83.20
13310;DHT22;6723;48.256;16.402;2023-03-01T15:34:38;9.30;83.20
13310;DHT22;6723;48.256;16.402;2023-03-01T15:40:28;9.20;84.70
13310;DHT22;6723;48.256;16.402;2023-03-01T15:42:58;9.00;84.80
13310;DHT22;6723;48.256;16.402;2023-03-01T15:45:27;8.90;85.30
13310;DHT22;6723;48.256;16.402;2023-03-01T15:47:55;8.80;84.80
13310;DHT22;6723;48.256;16.402;2023-03-01T15:50:30;8.70;84.90
13310;DHT22;6723;48.256;16.402;2023-03-01T15:52:59;8.80;85.30
13310;DHT22;6723;48.256;16.402;2023-03-01T15:55:30;8.70;85.00
13310;DHT22;6723;48.256;16.402;2023-03-01T15:58:19;8.60;85.20
13310;DHT22;6723;48.256;16.402;2023-03-01T16:00:47;8.60;85.50
13310;DHT22;6723;48.256;16.402;2023-03-01T16:03:14;8.60;85.60
13310;DHT22;6723;48.256;16.402;2023-03-01T16:05:48;8.60;85.70
13310;DHT22;6723;48.256;16.402;2023-03-01T16:08:14;8.50;86.50
13310;DHT22;6723;48.256;16.402;2023-03-01T16:10:41;8.60;86.60
13310;DHT22;6723;48.256;16.402;2023-03-01T16:13:11;8.50;86.50
13310;DHT22;6723;48.256;16.402;2023-03-01T16:15:37;8.50;86.90
13310;DHT22;6723;48.256;16.402;2023-03-01T16:18:04;8.40;86.70
13310;DHT22;6723;48.256;16.402;2023-03-01T16:20:33;8.40;86.80
13310;DHT22;6723;48.256;16.402;2023-03-01T16:23:00;8.30;86.90
13310;DHT22;6723;48.256;16.402;2023-03-01T16:25:27;8.30;86.90
13310;DHT22;6723;48.256;16.402;2023-03-01T16:27:53;8.20;87.00
13310;DHT22;6723;48.256;16.402;2023-03-01T16:30:22;8.20;87.10
13310;DHT22;6723;48.256;16.402;2023-03-01T16:32:50;8.10;87.30
13310;DHT22;6723;48.256;16.402;2023-03-01T16:35:18;8.10;87.50
13310;DHT22;6723;48.256;16.402;2023-03-01T16:37:46;8.00;87.50
13310;DHT22;6723;48.256;16.402;2023-03-01T16:40:19;8.00;87.50
13310;DHT22;6723;48.256;16.402;2023-03-01T16:42:48;7.90;87.60
13310;DHT22;6723;48.256;16.402;2023-03-01T16:45:13;7.90;88.10
13310;DHT22;6723;48.256;16.402;2023-03-01T16:47:39;7.90;88.20
13310;DHT22;6723;48.256;16.402;2023-03-01T16:50:05;7.90;88.80
13310;DHT22;6723;48.256;16.402;2023-03-01T16:52:31;7.80;88.70
13310;DHT22;6723;48.256;16.402;2023-03-01T16:54:58;7.80;88.70
13310;DHT22;6723;48.256;16.402;2023-03-01T16:57:24;7.80;88.80
13310;DHT22;6723;48.256;16.402;2023-03-01T16:59:52;7.80;89.10
13310;DHT22;6723;48.256;16.402;2023-03-01T17:02:21;7.70;89.10
13310;DHT22;6723;48.256;16.402;2023-03-01T17:04:56;7.70;89.20
13310;DHT22;6723;48.256;16.402;2023-03-01T17:07:22;7.60;89.40
13310;DHT22;6723;48.256;16.402;2023-03-01T17:09:48;7.70;89.70
13310;DHT22;6723;48.256;16.402;2023-03-01T17:12:14;7.70;89.80
13310;DHT22;6723;48.256;16.402;2023-03-01T17:15:08;7.60;89.80
13310;DHT22;6723;48.256;16.402;2023-03-01T17:17:34;7.60;89.90
13310;DHT22;6723;48.256;16.402;2023-03-01T17:20:04;7.50;89.90
13310;DHT22;6723;48.256;16.402;2023-03-01T17:22:30;7.50;90.00
13310;DHT22;6723;48.256;16.402;2023-03-01T17:24:56;7.50;90.10
13310;DHT22;6723;48.256;16.402;2023-03-01T17:27:22;7.40;90.20
13310;DHT22;6723;48.256;16.402;2023-03-01T17:29:48;7.40;90.30
13310;DHT22;6723;48.256;16.402;2023-03-01T17:32:14;7.30;90.30
13310;DHT22;6723;48.256;16.402;2023-03-01T17:34:39;7.20;90.40
13310;DHT22;6723;48.256;16.402;2023-03-01T17:37:05;7.20;90.50
13310;DHT22;6723;48.256;16.402;2023-03-01T17:39:31;7.10;90.50
13310;DHT22;6723;48.256;16.402;2023-03-01T17:42:03;7.10;90.60
13310;DHT22;6723;48.256;16.402;2023-03-01T17:44:31;7.00;90.70
13310;DHT22;6723;48.256;16.402;2023-03-01T17:46:59;6.90;90.90
13310;DHT22;6723;48.256;16.402;2023-03-01T17:49:25;6.90;91.10
13310;DHT22;6723;48.256;16.402;2023-03-01T17:51:50;6.80;91.10
13310;DHT22;6723;48.256;16.402;2023-03-01T17:54:16;6.80;91.40
13310;DHT22;6723;48.256;16.402;2023-03-01T17:56:42;6.70;91.50
13310;DHT22;6723;48.256;16.402;2023-03-01T17:59:08;6.70;91.80